createdAt,value
2022-08-18T00:02:05.378Z,58.62
2022-08-18T00:04:35.976Z,58.14
2022-08-18T00:07:03.975Z,58.73
2022-08-18T00:09:32.845Z,58.99
2022-08-18T00:12:02.213Z,58.80
2022-08-18T00:14:29.253Z,59.05
2022-08-18T00:16:56.082Z,58.80
2022-08-18T00:19:45.635Z,58.93
2022-08-18T00:22:15.336Z,58.71
2022-08-18T00:24:47.486Z,59.00
2022-08-18T00:27:17.405Z,58.87
2022-08-18T00:29:45.007Z,58.73
2022-08-18T00:32:38.567Z,58.87
2022-08-18T00:35:18.479Z,59.42
2022-08-18T00:37:45.318Z,58.76
2022-08-18T00:40:16.858Z,59.10
2022-08-18T00:42:51.006Z,59.19
2022-08-18T00:45:23.295Z,59.03
2022-08-18T00:47:50.016Z,59.15
2022-08-18T00:50:22.337Z,59.97
2022-08-18T00:52:57.721Z,59.83
2022-08-18T00:55:24.844Z,59.40
2022-08-18T00:57:56.034Z,59.21
2022-08-18T01:00:23.103Z,59.79
2022-08-18T01:02:53.458Z,60.10
2022-08-18T01:05:28.322Z,59.69
2022-08-18T01:07:55.163Z,59.57
2022-08-18T01:10:23.371Z,59.84
2022-08-18T01:12:52.974Z,60.37
2022-08-18T01:15:28.814Z,60.26
2022-08-18T01:18:19.790Z,59.98
2022-08-18T01:21:14.403Z,60.49
2022-08-18T01:23:41.098Z,60.58
2022-08-18T01:26:09.542Z,60.48
2022-08-18T01:28:39.761Z,60.66
2022-08-18T01:31:07.823Z,60.74
2022-08-18T01:33:37.231Z,60.74
2022-08-18T01:36:16.872Z,61.32
2022-08-18T01:38:45.974Z,61.33
2022-08-18T01:41:28.587Z,61.22
2022-08-18T01:43:57.441Z,61.37
2022-08-18T01:46:24.587Z,61.21
2022-08-18T01:48:52.404Z,61.41
2022-08-18T01:51:20.681Z,60.90
2022-08-18T01:54:07.891Z,61.21
2022-08-18T01:56:34.599Z,61.15
2022-08-18T01:59:01.292Z,61.05
2022-08-18T02:01:32.991Z,60.65
2022-08-18T02:04:30.990Z,60.45
2022-08-18T02:06:51.161Z,60.77
2022-08-18T02:09:24.121Z,60.93
2022-08-18T02:11:55.785Z,61.43
2022-08-18T02:14:24.999Z,60.92
2022-08-18T02:16:53.724Z,61.48
2022-08-18T02:19:28.313Z,61.23
2022-08-18T02:21:55.020Z,61.69
2022-08-18T02:24:21.800Z,61.64
2022-08-18T02:26:48.597Z,62.27
2022-08-18T02:29:15.401Z,61.78
2022-08-18T02:31:42.066Z,61.63
2022-08-18T02:34:08.822Z,61.77
2022-08-18T02:36:35.520Z,62.00
2022-08-18T02:39:02.309Z,61.91
2022-08-18T02:41:29.671Z,62.28
2022-08-18T02:43:57.426Z,62.36
2022-08-18T02:46:24.155Z,62.65
2022-08-18T02:48:57.213Z,62.09
2022-08-18T02:51:25.846Z,62.04
2022-08-18T02:53:53.869Z,62.13
2022-08-18T02:56:32.856Z,62.17
2022-08-18T02:59:13.896Z,62.51
2022-08-18T03:01:43.814Z,63.15
2022-08-18T03:04:14.389Z,63.13
2022-08-18T03:06:41.757Z,62.96
2022-08-18T03:09:10.352Z,62.58
2022-08-18T03:11:37.795Z,62.87
2022-08-18T03:14:05.699Z,63.01
2022-08-18T03:16:33.454Z,62.90
2022-08-18T03:19:01.320Z,63.13
2022-08-18T03:21:35.073Z,63.68
2022-08-18T03:24:03.012Z,63.62
2022-08-18T03:26:41.860Z,63.37
2022-08-18T03:29:09.428Z,63.92
2022-08-18T03:31:39.312Z,63.41
2022-08-18T03:34:07.272Z,63.87
2022-08-18T03:36:37.066Z,63.95
2022-08-18T03:39:09.233Z,64.00
2022-08-18T03:41:57.564Z,64.23
2022-08-18T03:44:25.519Z,63.79
2022-08-18T03:46:52.362Z,63.65
2022-08-18T03:49:20.907Z,64.19
2022-08-18T03:51:48.863Z,64.13
2022-08-18T03:54:17.854Z,64.41
2022-08-18T03:56:45.772Z,64.46
2022-08-18T03:59:24.018Z,64.93
2022-08-18T04:01:52.627Z,64.95
2022-08-18T04:04:25.937Z,65.36
2022-08-18T04:06:58.700Z,65.35
2022-08-18T04:09:28.053Z,65.12
2022-08-18T04:11:55.537Z,65.14
2022-08-18T04:14:25.089Z,65.33
2022-08-18T04:16:52.675Z,65.08
2022-08-18T04:19:25.157Z,65.08
2022-08-18T04:21:54.622Z,65.12
2022-08-18T04:24:21.403Z,64.83
2022-08-18T04:26:48.583Z,65.41
2022-08-18T04:29:17.311Z,65.66
2022-08-18T04:31:45.468Z,66.02
2022-08-18T04:34:12.566Z,65.59
2022-08-18T04:36:39.787Z,65.70
2022-08-18T04:39:08.102Z,65.67
2022-08-18T04:41:35.759Z,65.78
2022-08-18T04:44:05.363Z,65.99
2022-08-18T04:46:40.585Z,66.15
2022-08-18T04:49:08.179Z,66.22
2022-08-18T04:52:36.296Z,66.21
2022-08-18T04:54:25.068Z,66.47
2022-08-18T04:56:53.390Z,66.59
2022-08-18T04:59:20.605Z,66.77
2022-08-18T05:01:48.029Z,66.79
2022-08-18T05:04:16.780Z,67.00
2022-08-18T05:06:44.224Z,66.54
2022-08-18T05:09:12.827Z,65.91
2022-08-18T05:11:44.680Z,65.88
2022-08-18T05:14:11.792Z,65.85
2022-08-18T05:16:47.872Z,66.05
2022-08-18T05:19:23.259Z,66.51
2022-08-18T05:21:52.343Z,66.74
2022-08-18T05:24:21.594Z,66.68
2022-08-18T05:26:49.269Z,66.41
2022-08-18T05:29:18.799Z,66.72
2022-08-18T05:31:48.115Z,66.90
2022-08-18T05:34:15.591Z,66.98
2022-08-18T05:36:58.128Z,67.06
2022-08-18T05:39:32.796Z,66.86
2022-08-18T05:42:07.514Z,66.41
2022-08-18T05:44:37.388Z,65.99
2022-08-18T05:47:18.936Z,65.91
2022-08-18T05:49:49.198Z,65.86
2022-08-18T05:52:20.014Z,66.06
2022-08-18T05:55:08.456Z,65.64
2022-08-18T05:57:53.195Z,65.56
2022-08-18T06:00:23.435Z,65.07
2022-08-18T06:02:59.182Z,64.69
2022-08-18T06:05:31.947Z,64.64
2022-08-18T06:08:13.970Z,60.75
2022-08-18T06:10:49.660Z,59.65
2022-08-18T06:13:18.714Z,57.89
2022-08-18T06:16:12.386Z,58.17
2022-08-18T06:18:59.851Z,58.17
2022-08-18T06:21:51.055Z,57.79
2022-08-18T06:24:30.036Z,57.38
2022-08-18T06:27:21.635Z,55.88
2022-08-18T06:29:55.031Z,55.84
2022-08-18T06:32:36.457Z,55.94
2022-08-18T06:35:23.440Z,55.69
2022-08-18T06:38:13.077Z,56.42
2022-08-18T06:40:40.068Z,56.45
2022-08-18T06:43:10.201Z,55.51
2022-08-18T06:45:39.943Z,56.04
2022-08-18T06:48:29.458Z,56.15
2022-08-18T06:51:00.510Z,55.59
2022-08-18T06:54:03.831Z,54.87
2022-08-18T06:56:39.711Z,53.69
2022-08-18T06:59:18.697Z,52.61
2022-08-18T07:01:47.657Z,52.13
2022-08-18T07:04:41.369Z,54.38
2022-08-18T07:07:39.542Z,53.76
2022-08-18T07:10:29.606Z,52.09
2022-08-18T07:13:25.677Z,52.57
2022-08-18T07:15:54.663Z,51.15
2022-08-18T07:18:24.791Z,50.43
2022-08-18T07:20:58.087Z,51.04
2022-08-18T07:23:39.493Z,51.99
2022-08-18T07:26:15.840Z,52.78
2022-08-18T07:28:51.586Z,53.21
2022-08-18T07:31:42.323Z,51.60
2022-08-18T07:34:13.819Z,51.02
2022-08-18T07:36:53.391Z,51.04
2022-08-18T07:39:28.522Z,50.30
2022-08-18T07:42:37.154Z,49.77
2022-08-18T07:45:39.077Z,49.54
2022-08-18T07:48:40.202Z,50.24
2022-08-18T07:51:13.520Z,50.77
2022-08-18T07:54:45.422Z,49.26
2022-08-18T07:57:19.708Z,49.38
2022-08-18T07:59:47.379Z,49.31
2022-08-18T08:02:32.929Z,50.50
2022-08-18T08:05:02.693Z,50.62
2022-08-18T08:07:46.357Z,50.29
2022-08-18T08:10:31.316Z,49.25
2022-08-18T08:13:19.347Z,50.49
2022-08-18T08:16:11.334Z,49.07
2022-08-18T08:18:50.240Z,50.05
2022-08-18T08:21:22.531Z,49.43
2022-08-18T08:24:07.700Z,51.79
2022-08-18T08:26:59.021Z,50.44
2022-08-18T08:29:39.907Z,50.59
2022-08-18T08:32:22.587Z,51.29
2022-08-18T08:34:54.427Z,51.44
2022-08-18T08:37:28.436Z,51.39
2022-08-18T08:40:00.402Z,50.45
2022-08-18T08:42:56.453Z,50.20
2022-08-18T08:45:38.329Z,51.35
2022-08-18T08:48:21.513Z,48.20
2022-08-18T08:51:09.715Z,50.09
2022-08-18T08:53:48.384Z,49.94
2022-08-18T08:56:16.749Z,49.40
2022-08-18T08:58:47.688Z,49.94
2022-08-18T09:01:34.975Z,48.48
2022-08-18T09:04:22.276Z,49.13
2022-08-18T09:07:02.977Z,48.42
2022-08-18T09:10:05.679Z,47.04
2022-08-18T09:12:40.444Z,45.33
2022-08-18T09:15:28.592Z,45.13
2022-08-18T09:18:04.537Z,42.23
2022-08-18T09:21:21.803Z,42.62
2022-08-18T09:23:52.179Z,42.53
2022-08-18T09:26:49.863Z,42.42
2022-08-18T09:29:44.029Z,39.77
2022-08-18T09:32:22.935Z,41.05
2022-08-18T09:35:24.510Z,40.13
2022-08-18T09:38:20.577Z,39.03
2022-08-18T09:41:11.873Z,38.50
2022-08-18T09:43:54.782Z,37.58
2022-08-18T09:46:43.715Z,37.48
2022-08-18T09:49:22.794Z,39.88
2022-08-18T09:51:51.848Z,37.31
2022-08-18T09:54:25.113Z,39.25
2022-08-18T09:56:54.309Z,38.66
2022-08-18T09:59:35.124Z,36.65
2022-08-18T10:02:22.712Z,36.77
2022-08-18T10:05:22.758Z,38.03
2022-08-18T10:08:06.219Z,36.14
2022-08-18T10:11:00.531Z,35.12
2022-08-18T10:13:51.085Z,36.59
2022-08-18T10:16:28.800Z,35.54
2022-08-18T10:19:44.669Z,38.07
2022-08-18T10:22:13.362Z,37.00
2022-08-18T10:24:55.234Z,36.27
2022-08-18T10:27:45.647Z,36.10
2022-08-18T10:30:39.941Z,33.96
2022-08-18T10:33:58.469Z,34.09
2022-08-18T10:36:45.198Z,32.94
2022-08-18T10:39:45.699Z,31.22
2022-08-18T10:42:22.884Z,31.88
2022-08-18T10:44:52.693Z,31.92
2022-08-18T10:47:33.609Z,31.18
2022-08-18T10:50:05.281Z,31.53
2022-08-18T10:53:17.085Z,30.96
2022-08-18T10:55:53.042Z,29.50
2022-08-18T10:58:51.738Z,29.33
2022-08-18T11:01:38.686Z,28.66
2022-08-18T11:04:33.905Z,27.08
2022-08-18T11:07:09.464Z,27.21
2022-08-18T11:09:41.761Z,27.82
2022-08-18T11:12:12.000Z,29.23
2022-08-18T11:15:22.642Z,28.92
2022-08-18T11:17:54.083Z,28.48
2022-08-18T11:20:21.966Z,27.80
2022-08-18T11:23:00.406Z,26.54
2022-08-18T11:25:33.882Z,26.40
2022-08-18T11:28:01.654Z,25.15
2022-08-18T11:30:37.104Z,23.74
2022-08-18T11:33:04.916Z,22.73
2022-08-18T11:35:44.733Z,23.33
2022-08-18T11:41:23.362Z,22.28
2022-08-18T11:43:56.759Z,21.41
2022-08-18T11:46:31.520Z,20.94
2022-08-18T11:49:01.397Z,21.66
2022-08-18T11:51:32.519Z,21.40
2022-08-18T11:54:24.624Z,21.32
2022-08-18T11:56:52.053Z,22.87
2022-08-18T12:02:17.644Z,23.24
2022-08-18T12:04:44.934Z,24.94
2022-08-18T12:07:14.985Z,24.96
2022-08-18T12:10:15.979Z,26.58
2022-08-18T12:13:00.889Z,26.51
2022-08-18T12:18:28.754Z,27.32
2022-08-18T12:21:01.745Z,29.01
2022-08-18T12:23:38.828Z,26.82
2022-08-18T12:26:27.250Z,27.85
2022-08-18T12:29:11.167Z,27.57
2022-08-18T12:34:28.661Z,24.36
2022-08-18T12:36:57.907Z,23.88
2022-08-18T12:39:25.218Z,25.43
2022-08-18T12:41:52.267Z,25.72
2022-08-18T12:44:19.083Z,23.99
2022-08-18T12:46:47.487Z,23.92
2022-08-18T12:49:25.441Z,24.95
2022-08-18T12:51:55.786Z,23.63
2022-08-18T12:54:23.002Z,23.33
2022-08-18T12:56:54.250Z,23.59
2022-08-18T12:59:21.135Z,24.34
2022-08-18T13:01:51.333Z,25.10
2022-08-18T13:04:26.805Z,25.14
2022-08-18T13:07:00.443Z,24.44
2022-08-18T13:09:35.089Z,24.78
2022-08-18T13:12:16.610Z,24.69
2022-08-18T13:14:44.588Z,24.57
2022-08-18T13:17:30.020Z,25.33
2022-08-18T13:20:00.795Z,24.67
2022-08-18T13:22:32.023Z,24.83
2022-08-18T13:25:01.400Z,25.13
2022-08-18T13:27:33.134Z,23.98
2022-08-18T13:30:03.740Z,25.36
2022-08-18T13:32:58.822Z,24.70
2022-08-18T13:35:29.918Z,25.75
2022-08-18T13:38:14.595Z,26.09
2022-08-18T13:40:48.613Z,27.39
2022-08-18T13:43:17.734Z,27.65
2022-08-18T13:45:52.949Z,28.23
2022-08-18T13:48:20.008Z,27.53
2022-08-18T13:50:47.177Z,28.45
2022-08-18T13:53:19.929Z,28.65
2022-08-18T13:55:47.767Z,28.14
2022-08-18T13:58:17.578Z,28.90
2022-08-18T14:00:54.412Z,28.92
2022-08-18T14:03:42.359Z,29.14
2022-08-18T14:06:13.121Z,30.19
2022-08-18T14:08:40.885Z,29.83
2022-08-18T14:11:08.571Z,29.59
2022-08-18T14:13:38.082Z,30.07
2022-08-18T14:16:10.599Z,28.98
2022-08-18T14:18:37.386Z,29.87
2022-08-18T14:21:24.527Z,29.34
2022-08-18T14:24:14.207Z,28.95
2022-08-18T14:26:51.238Z,29.31
2022-08-18T14:29:45.634Z,28.34
2022-08-18T14:32:07.296Z,28.89
2022-08-18T14:34:34.749Z,29.67
2022-08-18T14:37:03.648Z,29.95
2022-08-18T14:39:30.506Z,29.15
2022-08-18T14:41:58.680Z,29.41
2022-08-18T14:44:31.822Z,29.73
2022-08-18T14:46:59.740Z,28.87
2022-08-18T14:49:29.410Z,28.63
2022-08-18T14:52:00.651Z,28.72
2022-08-18T14:54:28.697Z,30.51
2022-08-18T14:56:58.315Z,29.88
2022-08-18T14:59:25.627Z,29.91
2022-08-18T15:01:53.390Z,29.36
2022-08-18T15:04:21.186Z,29.63
2022-08-18T15:06:55.634Z,30.45
2022-08-18T15:09:23.422Z,30.89
2022-08-18T15:11:51.242Z,31.40
2022-08-18T15:14:21.487Z,31.57
2022-08-18T15:17:13.270Z,32.67
2022-08-18T15:19:59.689Z,32.25
2022-08-18T15:22:46.439Z,33.34
2022-08-18T15:25:47.204Z,34.58
2022-08-18T15:28:23.717Z,34.07
2022-08-18T15:31:16.609Z,33.99
2022-08-18T15:33:39.310Z,34.13
2022-08-18T15:36:09.967Z,35.02
2022-08-18T15:38:37.147Z,39.35
2022-08-18T15:41:06.299Z,38.67
2022-08-18T15:43:45.796Z,40.12
2022-08-18T15:46:16.746Z,38.98
2022-08-18T15:48:46.408Z,37.28
2022-08-18T15:51:13.322Z,37.56
2022-08-18T15:53:44.812Z,36.79
2022-08-18T15:56:25.830Z,36.76
2022-08-18T15:58:52.869Z,35.25
2022-08-18T16:01:32.275Z,36.24
2022-08-18T16:04:01.432Z,36.98
2022-08-18T16:06:32.199Z,37.00
2022-08-18T16:08:59.622Z,36.49
2022-08-18T16:11:29.457Z,36.87
2022-08-18T16:13:59.113Z,36.07
2022-08-18T16:16:29.253Z,37.17
2022-08-18T16:19:05.220Z,37.28
2022-08-18T16:21:32.037Z,37.89
2022-08-18T16:23:59.019Z,38.02
2022-08-18T16:26:25.849Z,37.48
2022-08-18T16:28:53.070Z,37.79
2022-08-18T16:31:25.146Z,38.10
2022-08-18T16:33:56.349Z,36.34
2022-08-18T16:36:25.850Z,37.15
2022-08-18T16:38:58.034Z,38.08
2022-08-18T16:41:26.683Z,36.88
2022-08-18T16:43:53.570Z,37.38
2022-08-18T16:46:26.343Z,39.65
2022-08-18T16:48:58.007Z,39.26
2022-08-18T16:51:27.109Z,40.81
2022-08-18T16:53:54.633Z,38.53
2022-08-18T16:56:26.688Z,37.62
2022-08-18T16:59:13.196Z,38.68
2022-08-18T17:01:59.161Z,39.16
2022-08-18T17:04:29.050Z,38.66
2022-08-18T17:06:56.961Z,39.02
2022-08-18T17:09:23.984Z,40.97
2022-08-18T17:11:52.466Z,40.71
2022-08-18T17:14:24.800Z,40.82
2022-08-18T17:16:55.212Z,41.31
2022-08-18T17:19:28.124Z,41.52
2022-08-18T17:21:54.857Z,41.19
2022-08-18T17:24:32.267Z,42.39
2022-08-18T17:27:27.250Z,43.17
2022-08-18T17:29:54.436Z,43.50
2022-08-18T17:32:26.058Z,44.06
2022-08-18T17:35:00.976Z,44.78
2022-08-18T17:37:31.190Z,45.38
2022-08-18T17:40:04.211Z,47.07
2022-08-18T17:42:32.120Z,48.10
2022-08-18T17:45:08.210Z,48.40
2022-08-18T17:47:59.862Z,48.20
2022-08-18T17:50:55.296Z,47.97
2022-08-18T17:53:22.635Z,48.81
2022-08-18T17:56:00.083Z,48.87
2022-08-18T17:58:38.158Z,49.64
2022-08-18T18:01:05.525Z,49.33
2022-08-18T18:03:34.173Z,48.96
2022-08-18T18:06:32.260Z,49.98
2022-08-18T18:09:02.247Z,49.70
2022-08-18T18:11:35.177Z,50.39
2022-08-18T18:14:34.100Z,50.35
2022-08-18T18:17:14.591Z,50.48
2022-08-18T18:19:48.094Z,50.61
2022-08-18T18:22:27.385Z,50.86
2022-08-18T18:24:56.295Z,52.28
2022-08-18T18:27:27.049Z,50.50
2022-08-18T18:30:07.340Z,51.03
2022-08-18T18:32:38.633Z,51.16
2022-08-18T18:35:34.138Z,50.79
2022-08-18T18:38:04.356Z,50.33
2022-08-18T18:40:57.526Z,51.29
2022-08-18T18:43:27.262Z,51.59
2022-08-18T18:46:08.012Z,51.91
2022-08-18T18:49:01.680Z,51.65
2022-08-18T18:51:53.009Z,51.33
2022-08-18T18:54:44.202Z,51.04
2022-08-18T18:57:30.279Z,51.48
2022-08-18T19:00:16.830Z,50.89
2022-08-18T19:02:53.696Z,52.53
2022-08-18T19:05:38.837Z,51.82
2022-08-18T19:08:28.470Z,51.62
2022-08-18T19:11:05.486Z,51.63
2022-08-18T19:13:37.293Z,52.26
2022-08-18T19:16:29.059Z,51.73
2022-08-18T19:19:38.335Z,51.87
2022-08-18T19:22:05.563Z,51.92
2022-08-18T19:24:38.919Z,51.59
2022-08-18T19:27:07.751Z,52.07
2022-08-18T19:29:42.793Z,51.85
2022-08-18T19:32:17.146Z,52.10
2022-08-18T19:34:51.340Z,52.15
2022-08-18T19:37:30.961Z,52.77
2022-08-18T19:40:37.254Z,53.11
2022-08-18T19:43:13.216Z,52.82
2022-08-18T19:45:46.896Z,52.46
2022-08-18T19:48:35.010Z,52.52
2022-08-18T19:51:08.493Z,52.31
2022-08-18T19:53:59.074Z,52.65
2022-08-18T19:56:25.753Z,52.69
2022-08-18T19:59:34.984Z,53.30
2022-08-18T20:02:40.263Z,52.83
2022-08-18T20:05:39.075Z,52.79
2022-08-18T20:08:27.393Z,52.74
2022-08-18T20:10:54.194Z,53.15
2022-08-18T20:13:33.086Z,52.89
2022-08-18T20:16:02.961Z,53.41
2022-08-18T20:18:34.620Z,52.33
2022-08-18T20:21:16.847Z,52.99
2022-08-18T20:23:56.311Z,53.89
2022-08-18T20:26:35.302Z,54.52
2022-08-18T20:29:02.453Z,58.46
2022-08-18T20:31:53.605Z,62.90
2022-08-18T20:34:23.785Z,63.63
2022-08-18T20:36:52.074Z,64.50
2022-08-18T20:39:42.156Z,65.79
2022-08-18T20:42:37.555Z,65.07
2022-08-18T20:45:12.594Z,66.69
2022-08-18T20:48:03.679Z,66.00
2022-08-18T20:50:54.386Z,66.34
2022-08-18T20:53:24.095Z,67.07
2022-08-18T20:56:32.517Z,67.42
2022-08-18T20:59:30.603Z,67.62
2022-08-18T21:02:06.211Z,68.07
2022-08-18T21:04:50.534Z,68.51
2022-08-18T21:07:36.178Z,68.71
2022-08-18T21:10:24.592Z,69.37
2022-08-18T21:12:54.306Z,68.78
2022-08-18T21:15:31.188Z,69.16
2022-08-18T21:17:59.709Z,69.20
2022-08-18T21:20:27.390Z,69.97
2022-08-18T21:23:12.302Z,70.25
2022-08-18T21:25:56.749Z,69.44
2022-08-18T21:28:26.664Z,70.41
2022-08-18T21:31:42.510Z,70.33
2022-08-18T21:33:56.066Z,70.38
2022-08-18T21:36:25.666Z,71.75
2022-08-18T21:39:05.224Z,71.63
2022-08-18T21:41:34.491Z,73.03
2022-08-18T21:44:07.571Z,74.34
2022-08-18T21:46:34.662Z,75.42
2022-08-18T21:49:02.796Z,76.07
2022-08-18T21:51:38.491Z,76.14
2022-08-18T21:54:05.678Z,76.33
2022-08-18T21:56:34.630Z,75.99
2022-08-18T21:59:14.007Z,76.41
2022-08-18T22:01:58.028Z,76.10
2022-08-18T22:04:35.968Z,76.11
2022-08-18T22:07:06.243Z,76.78
2022-08-18T22:10:20.790Z,77.02
2022-08-18T22:13:14.392Z,76.75
2022-08-18T22:15:42.684Z,76.78
2022-08-18T22:18:18.513Z,77.16
2022-08-18T22:20:51.190Z,76.74
2022-08-18T22:23:43.507Z,77.15
2022-08-18T22:26:16.363Z,77.73
2022-08-18T22:29:13.400Z,76.94
2022-08-18T22:31:48.885Z,77.37
2022-08-18T22:34:26.991Z,77.71
2022-08-18T22:37:00.982Z,77.57
2022-08-18T22:39:35.532Z,77.06
2022-08-18T22:42:03.821Z,77.33
2022-08-18T22:44:30.577Z,77.91
2022-08-18T22:46:57.271Z,77.60
2022-08-18T22:49:24.404Z,77.75
2022-08-18T22:51:53.389Z,77.69
2022-08-18T22:54:20.645Z,77.80
2022-08-18T22:56:53.840Z,77.89
2022-08-18T22:59:23.685Z,77.94
2022-08-18T23:01:51.316Z,77.55
2022-08-18T23:04:20.864Z,78.03
2022-08-18T23:06:54.117Z,78.23
2022-08-18T23:09:29.720Z,77.76
2022-08-18T23:11:59.386Z,77.72
2022-08-18T23:14:26.131Z,77.41
2022-08-18T23:16:52.866Z,77.24
2022-08-18T23:19:20.838Z,77.07
2022-08-18T23:21:48.740Z,77.54
2022-08-18T23:24:17.566Z,76.73
2022-08-18T23:26:44.800Z,77.74
2022-08-18T23:29:12.761Z,77.55
2022-08-18T23:31:40.946Z,77.50
2022-08-18T23:34:08.366Z,77.84
2022-08-18T23:36:41.273Z,77.78
2022-08-18T23:39:10.726Z,77.45
2022-08-18T23:41:38.425Z,77.59
2022-08-18T23:44:06.696Z,77.48
2022-08-18T23:46:33.919Z,77.32
2022-08-18T23:49:02.681Z,77.11
2022-08-18T23:51:35.161Z,77.09
2022-08-18T23:54:05.259Z,77.54
2022-08-18T23:56:32.734Z,77.21
2022-08-18T23:59:00.085Z,77.66
